Aérodrome :
LOGIN :

S'inscrire | Disclaimer

   EN    FR    IT 

 










Légende :    VFR   VFR Marginal   IFR   IFR Intensif   IFR Très Intensif
Visi : 
Plafond : 
>= 8 km
>= 3000ft
5 à 8 km
1000 à 3000 ft
1500m à 5 km
500 à 1000 ft
800 à 1500m
200 à 500 ft
< 800m
< 200 ft
Symboles :   Orages  Brouillard  Fortes neiges  Fortes précipitations  Vent > 20 kt
SIGMETs :   Divers  Orages  Givrage  Turbulence  Onde Orograph.  Cendres Volcan.







- Altitude de l'aérodrome : 370 ft


EBBE - Beauvechain AB

DERNIER METAR :
  • 220603Z 24020KT 9999 BKN010 BKN015 10/08 Q1010 GRN WHT TEMPO GRN

METARs EXPIRÉS :
  • 220525Z 24018KT 9999 SCT010 OVC014 10/08 Q1010 GRN GRN
  • 220521Z 24019KT 9999 SCT010 OVC014 10/08 Q1010 GRN GRN
  • 220455Z 23018KT 9999 -DZ FEW007 BKN009 OVC012 09/08 Q1010 GRN
  • 220425Z AUTO 23017KT 4600 FEW007/// BKN009/// OVC013/// 09/08 Q1010 GRN
  • 220413Z AUTO 23017KT 5000 FEW006/// BKN009/// BKN013/// 09/08 Q1010 GRN
  • 220355Z AUTO 23018KT 9999 SCT006/// BKN009/// OVC012/// 09/08 Q1011 YLO
  • 220348Z AUTO 24017KT 6000 -DZ FEW006/// BKN008/// BKN011/// 09/08 Q1011 GRN
  • 220335Z AUTO 23017KT 3600 -DZ FEW006/// BKN009/// BKN015/// 09/08 Q1011 YLO
  • 220325Z AUTO 23018KT 3900 -DZ FEW008/// SCT011/// BKN014/// 09/08 Q1011 GRN
  • 220315Z AUTO 23017KT 8000 FEW009/// SCT014/// BKN027/// 09/08 Q1011 GRN

TAF TAF EBBE
Valide du 21 à 19h jusqu'au 22 à 07h UTC


211541Z 2119/2207 24015KT 3500 BR SCT006 BKN009
TEMPO 2119/2207 2200 -RA -DZ BKN003 OVC008
TEMPO 2119/2122 1800 RA DZ BKN002 BKN005
PROB30
TEMPO 2119/2122 1200 RA DZ BKN001 BKN003
Pas de NOTAMs connus pour ce terrain.
1 SIGMET publié pour la FIR Brussels (EBBU) :
 
Turbulence forte
EBBU SIGMET 01 VALID 220400/220700 EBBR
EBBU BRUSSELS FIR SEV TURB FCST W OF LINE N5115 E00400 - N5045 E00330 SFC/FL050 MOV E15KT WKN=



MET'MAP, la Météo Aéronautique d'un coup d'oeil ! - Copyright ORBIFLY Décembre 2007 - Disclaimer

ORBIFLY MET'MAP TEAM :

Programmation & Développement : Alexandra Zaïnal
Conception & Développement : Baudouin d'Aumeries
Co-Programmation & Développement : Marc-Olivier Méhu
Soutien technique & logistique : Manuel Goepfert

Contact : metmap@orbifly.com




SOURCES & CREDITS :

   NOAA